sim
Sign-in with your pilot id or email,
or register
Callsign
Passwort

Schedule Details

Flight Number: DLH2715
Departure: Hamburg Airport (EDDH) at 17:50
Arrival: Munich Airport (EDDM) at 19:05
Route: Lufthansa Passenger Schedule. Enter filed route here before submitting Pirep.

Weather Information
Getting current METAR information for EDDH 211120Z 17008KT 140V220 CAVOK 22/08 Q1017 NOSIG
Getting current METAR information for EDDM 211120Z 06004KT 010V130 CAVOK 21/13 Q1017 NOSIG

Schedule Frequency

Route Map